Terminal Aerodrome Forecast
Issued by NWS

Home | Current Version | Previous Version | Text Only | Print | Product List | Glossary On
Versions: 1 2 3 4 5 6 7 8 9 10 11 12 13 14 15 16
000
FTUS46 KEKA 270907 CCA
TAFCEC
TAF COR
KCEC 270907Z 2708/2806 19003KT P6SM OVC005
     FM271200 00000KT 3SM BR OVC004
     FM271700 17006KT 6SM BR BKN007
     FM271900 19008KT P6SM BKN023=

USA.gov is the U.S. government's official web portal to all federal, state and local government web resources and services.